sensor_id;sensor_type;location;lat;lon;timestamp;temperature;humidity
5850;DHT22;2951;47.712;9.400;2024-02-04T00:01:34;3.30;99.90
5850;DHT22;2951;47.712;9.400;2024-02-04T00:04:01;3.30;99.90
5850;DHT22;2951;47.712;9.400;2024-02-04T00:06:28;3.40;99.90
5850;DHT22;2951;47.712;9.400;2024-02-04T00:08:54;3.50;99.90
5850;DHT22;2951;47.712;9.400;2024-02-04T00:11:21;3.50;99.90
5850;DHT22;2951;47.712;9.400;2024-02-04T00:13:48;3.50;99.90
5850;DHT22;2951;47.712;9.400;2024-02-04T00:16:15;3.50;99.90
5850;DHT22;2951;47.712;9.400;2024-02-04T00:18:41;3.60;99.90
5850;DHT22;2951;47.712;9.400;2024-02-04T00:21:08;3.70;99.90
5850;DHT22;2951;47.712;9.400;2024-02-04T00:23:35;3.70;99.90
5850;DHT22;2951;47.712;9.400;2024-02-04T00:26:02;3.70;99.90
5850;DHT22;2951;47.712;9.400;2024-02-04T00:28:32;3.60;99.90
5850;DHT22;2951;47.712;9.400;2024-02-04T00:30:59;3.50;99.90
5850;DHT22;2951;47.712;9.400;2024-02-04T00:33:27;3.50;99.90
5850;DHT22;2951;47.712;9.400;2024-02-04T00:35:53;3.40;99.90
5850;DHT22;2951;47.712;9.400;2024-02-04T00:38:20;3.40;99.90
5850;DHT22;2951;47.712;9.400;2024-02-04T00:40:47;3.40;99.90
5850;DHT22;2951;47.712;9.400;2024-02-04T00:43:14;3.50;99.90
5850;DHT22;2951;47.712;9.400;2024-02-04T00:45:40;3.50;99.90
5850;DHT22;2951;47.712;9.400;2024-02-04T00:48:09;3.60;99.90
5850;DHT22;2951;47.712;9.400;2024-02-04T00:50:35;3.60;99.90
5850;DHT22;2951;47.712;9.400;2024-02-04T00:53:02;3.60;99.90
5850;DHT22;2951;47.712;9.400;2024-02-04T00:55:29;3.50;99.90
5850;DHT22;2951;47.712;9.400;2024-02-04T00:57:56;3.30;99.90
5850;DHT22;2951;47.712;9.400;2024-02-04T01:00:26;3.30;99.90
5850;DHT22;2951;47.712;9.400;2024-02-04T01:02:54;3.30;99.90
5850;DHT22;2951;47.712;9.400;2024-02-04T01:05:20;3.20;99.90
5850;DHT22;2951;47.712;9.400;2024-02-04T01:07:47;3.20;99.90
5850;DHT22;2951;47.712;9.400;2024-02-04T01:10:14;3.10;99.90
5850;DHT22;2951;47.712;9.400;2024-02-04T01:12:41;3.10;99.90
5850;DHT22;2951;47.712;9.400;2024-02-04T01:15:07;2.90;99.90
5850;DHT22;2951;47.712;9.400;2024-02-04T01:17:34;2.80;99.90
5850;DHT22;2951;47.712;9.400;2024-02-04T01:20:01;2.80;99.90
5850;DHT22;2951;47.712;9.400;2024-02-04T01:22:28;2.70;99.90
5850;DHT22;2951;47.712;9.400;2024-02-04T01:24:58;2.70;99.90
5850;DHT22;2951;47.712;9.400;2024-02-04T01:27:29;2.30;99.90
5850;DHT22;2951;47.712;9.400;2024-02-04T01:29:56;2.20;99.90
5850;DHT22;2951;47.712;9.400;2024-02-04T01:32:24;2.20;99.90
5850;DHT22;2951;47.712;9.400;2024-02-04T01:34:51;2.20;99.90
5850;DHT22;2951;47.712;9.400;2024-02-04T01:37:18;2.20;99.90
5850;DHT22;2951;47.712;9.400;2024-02-04T01:39:44;2.30;99.90
5850;DHT22;2951;47.712;9.400;2024-02-04T01:42:11;2.40;99.90
5850;DHT22;2951;47.712;9.400;2024-02-04T01:44:38;2.50;99.90
5850;DHT22;2951;47.712;9.400;2024-02-04T01:47:06;2.40;99.90
5850;DHT22;2951;47.712;9.400;2024-02-04T01:49:33;2.40;99.90
5850;DHT22;2951;47.712;9.400;2024-02-04T01:52:01;2.20;99.90
5850;DHT22;2951;47.712;9.400;2024-02-04T01:54:29;2.40;99.90
5850;DHT22;2951;47.712;9.400;2024-02-04T01:56:58;2.50;99.90
5850;DHT22;2951;47.712;9.400;2024-02-04T01:59:24;2.60;99.90
5850;DHT22;2951;47.712;9.400;2024-02-04T02:01:55;2.60;99.90
5850;DHT22;2951;47.712;9.400;2024-02-04T02:04:21;2.70;99.90
5850;DHT22;2951;47.712;9.400;2024-02-04T02:06:48;2.80;99.90
5850;DHT22;2951;47.712;9.400;2024-02-04T02:09:15;2.80;99.90
5850;DHT22;2951;47.712;9.400;2024-02-04T02:11:43;2.90;99.90
5850;DHT22;2951;47.712;9.400;2024-02-04T02:14:16;2.90;99.90
5850;DHT22;2951;47.712;9.400;2024-02-04T02:16:44;3.00;99.90
5850;DHT22;2951;47.712;9.400;2024-02-04T02:19:31;3.10;99.90
5850;DHT22;2951;47.712;9.400;2024-02-04T02:22:03;3.10;99.90
5850;DHT22;2951;47.712;9.400;2024-02-04T02:24:34;3.20;99.90
5850;DHT22;2951;47.712;9.400;2024-02-04T02:27:01;3.30;99.90
5850;DHT22;2951;47.712;9.400;2024-02-04T02:29:29;3.50;99.90
5850;DHT22;2951;47.712;9.400;2024-02-04T02:31:56;3.40;99.90
5850;DHT22;2951;47.712;9.400;2024-02-04T02:34:23;3.20;99.90
5850;DHT22;2951;47.712;9.400;2024-02-04T02:37:03;3.00;99.90
5850;DHT22;2951;47.712;9.400;2024-02-04T02:39:32;3.10;99.90
5850;DHT22;2951;47.712;9.400;2024-02-04T02:42:03;3.30;99.90
5850;DHT22;2951;47.712;9.400;2024-02-04T02:44:31;3.40;99.90
5850;DHT22;2951;47.712;9.400;2024-02-04T02:46:58;3.50;99.90
5850;DHT22;2951;47.712;9.400;2024-02-04T02:49:26;3.60;99.90
5850;DHT22;2951;47.712;9.400;2024-02-04T02:51:53;3.60;99.90
5850;DHT22;2951;47.712;9.400;2024-02-04T02:54:20;3.60;99.90
5850;DHT22;2951;47.712;9.400;2024-02-04T02:56:47;3.60;99.90
5850;DHT22;2951;47.712;9.400;2024-02-04T02:59:13;3.70;99.90
5850;DHT22;2951;47.712;9.400;2024-02-04T03:01:40;3.80;99.90
5850;DHT22;2951;47.712;9.400;2024-02-04T03:04:07;3.80;99.90
5850;DHT22;2951;47.712;9.400;2024-02-04T03:06:34;3.80;99.90
5850;DHT22;2951;47.712;9.400;2024-02-04T03:09:01;3.80;99.90
5850;DHT22;2951;47.712;9.400;2024-02-04T03:11:27;3.80;99.90
5850;DHT22;2951;47.712;9.400;2024-02-04T03:13:54;3.90;99.90
5850;DHT22;2951;47.712;9.400;2024-02-04T03:16:21;3.90;99.90
5850;DHT22;2951;47.712;9.400;2024-02-04T03:18:48;3.80;99.90
5850;DHT22;2951;47.712;9.400;2024-02-04T03:21:15;3.70;99.90
5850;DHT22;2951;47.712;9.400;2024-02-04T03:23:41;3.70;99.90
5850;DHT22;2951;47.712;9.400;2024-02-04T03:26:10;3.80;99.90
5850;DHT22;2951;47.712;9.400;2024-02-04T03:28:37;3.80;99.90
5850;DHT22;2951;47.712;9.400;2024-02-04T03:31:04;3.80;99.90
5850;DHT22;2951;47.712;9.400;2024-02-04T03:33:30;3.80;99.90
5850;DHT22;2951;47.712;9.400;2024-02-04T03:35:57;3.90;99.90
5850;DHT22;2951;47.712;9.400;2024-02-04T03:38:24;3.90;99.90
5850;DHT22;2951;47.712;9.400;2024-02-04T03:40:51;4.00;99.90
5850;DHT22;2951;47.712;9.400;2024-02-04T03:43:17;4.00;99.90
5850;DHT22;2951;47.712;9.400;2024-02-04T03:45:44;4.00;99.90
5850;DHT22;2951;47.712;9.400;2024-02-04T03:48:11;4.00;99.90
5850;DHT22;2951;47.712;9.400;2024-02-04T03:50:43;4.00;99.90
5850;DHT22;2951;47.712;9.400;2024-02-04T03:53:10;4.00;99.90
5850;DHT22;2951;47.712;9.400;2024-02-04T03:55:37;4.00;99.90
5850;DHT22;2951;47.712;9.400;2024-02-04T03:58:04;4.10;99.90
5850;DHT22;2951;47.712;9.400;2024-02-04T04:00:30;4.10;99.90
5850;DHT22;2951;47.712;9.400;2024-02-04T04:03:00;4.20;99.90
5850;DHT22;2951;47.712;9.400;2024-02-04T04:05:26;4.20;99.90
5850;DHT22;2951;47.712;9.400;2024-02-04T04:07:53;4.20;99.90
5850;DHT22;2951;47.712;9.400;2024-02-04T04:10:20;4.20;99.90
5850;DHT22;2951;47.712;9.400;2024-02-04T04:12:46;4.20;99.90
5850;DHT22;2951;47.712;9.400;2024-02-04T04:15:13;4.20;99.90
5850;DHT22;2951;47.712;9.400;2024-02-04T04:17:40;4.20;99.90
5850;DHT22;2951;47.712;9.400;2024-02-04T04:20:07;4.30;99.90
5850;DHT22;2951;47.712;9.400;2024-02-04T04:22:34;4.20;99.90
5850;DHT22;2951;47.712;9.400;2024-02-04T04:25:03;4.20;99.90
5850;DHT22;2951;47.712;9.400;2024-02-04T04:30:25;4.40;99.90
5850;DHT22;2951;47.712;9.400;2024-02-04T04:32:52;4.40;99.90
5850;DHT22;2951;47.712;9.400;2024-02-04T04:35:19;4.40;99.90
5850;DHT22;2951;47.712;9.400;2024-02-04T04:37:45;4.40;99.90
5850;DHT22;2951;47.712;9.400;2024-02-04T04:40:12;4.30;99.90
5850;DHT22;2951;47.712;9.400;2024-02-04T04:42:39;4.20;99.90
5850;DHT22;2951;47.712;9.400;2024-02-04T04:45:07;4.20;99.90
5850;DHT22;2951;47.712;9.400;2024-02-04T04:47:34;4.20;99.90
5850;DHT22;2951;47.712;9.400;2024-02-04T04:50:01;4.20;99.90
5850;DHT22;2951;47.712;9.400;2024-02-04T04:52:28;4.20;99.90
5850;DHT22;2951;47.712;9.400;2024-02-04T04:54:55;4.20;99.90
5850;DHT22;2951;47.712;9.400;2024-02-04T04:57:22;4.20;99.90
5850;DHT22;2951;47.712;9.400;2024-02-04T04:59:50;4.30;99.90
5850;DHT22;2951;47.712;9.400;2024-02-04T05:02:17;4.30;99.90
5850;DHT22;2951;47.712;9.400;2024-02-04T05:04:44;4.30;99.90
5850;DHT22;2951;47.712;9.400;2024-02-04T05:07:16;4.30;99.90
5850;DHT22;2951;47.712;9.400;2024-02-04T05:09:42;4.30;99.90
5850;DHT22;2951;47.712;9.400;2024-02-04T05:12:09;4.30;99.90
5850;DHT22;2951;47.712;9.400;2024-02-04T05:14:37;4.40;99.90
5850;DHT22;2951;47.712;9.400;2024-02-04T05:17:04;4.40;99.90
5850;DHT22;2951;47.712;9.400;2024-02-04T05:19:31;4.40;99.90
5850;DHT22;2951;47.712;9.400;2024-02-04T05:21:58;4.50;99.90
5850;DHT22;2951;47.712;9.400;2024-02-04T05:24:25;4.60;99.90
5850;DHT22;2951;47.712;9.400;2024-02-04T05:26:52;4.60;99.90
5850;DHT22;2951;47.712;9.400;2024-02-04T05:29:18;4.50;99.90
5850;DHT22;2951;47.712;9.400;2024-02-04T05:31:49;4.50;99.90
5850;DHT22;2951;47.712;9.400;2024-02-04T05:34:16;4.50;99.90
5850;DHT22;2951;47.712;9.400;2024-02-04T05:36:43;4.50;99.90
5850;DHT22;2951;47.712;9.400;2024-02-04T05:39:13;4.50;99.90
5850;DHT22;2951;47.712;9.400;2024-02-04T05:41:41;4.50;99.90
5850;DHT22;2951;47.712;9.400;2024-02-04T05:44:11;4.50;99.90
5850;DHT22;2951;47.712;9.400;2024-02-04T05:46:37;4.50;99.90
5850;DHT22;2951;47.712;9.400;2024-02-04T05:49:04;4.60;99.90
5850;DHT22;2951;47.712;9.400;2024-02-04T05:51:32;4.60;99.90
5850;DHT22;2951;47.712;9.400;2024-02-04T05:53:59;4.60;99.90
5850;DHT22;2951;47.712;9.400;2024-02-04T05:56:26;4.60;99.90
5850;DHT22;2951;47.712;9.400;2024-02-04T05:58:52;4.70;99.90
5850;DHT22;2951;47.712;9.400;2024-02-04T06:01:19;4.70;99.90
5850;DHT22;2951;47.712;9.400;2024-02-04T06:03:46;4.70;99.90
5850;DHT22;2951;47.712;9.400;2024-02-04T06:06:15;4.60;99.90
5850;DHT22;2951;47.712;9.400;2024-02-04T06:08:42;4.70;99.90
5850;DHT22;2951;47.712;9.400;2024-02-04T06:11:10;4.60;99.90
5850;DHT22;2951;47.712;9.400;2024-02-04T06:13:38;4.70;99.90
5850;DHT22;2951;47.712;9.400;2024-02-04T06:16:05;4.70;99.90
5850;DHT22;2951;47.712;9.400;2024-02-04T06:18:31;4.60;99.90
5850;DHT22;2951;47.712;9.400;2024-02-04T06:20:59;4.60;99.90
5850;DHT22;2951;47.712;9.400;2024-02-04T06:23:26;4.70;99.90
5850;DHT22;2951;47.712;9.400;2024-02-04T06:25:52;4.80;99.90
5850;DHT22;2951;47.712;9.400;2024-02-04T06:28:25;4.70;99.90
5850;DHT22;2951;47.712;9.400;2024-02-04T06:30:52;4.70;99.90
5850;DHT22;2951;47.712;9.400;2024-02-04T06:33:19;4.70;99.90
5850;DHT22;2951;47.712;9.400;2024-02-04T06:35:47;4.70;99.90
5850;DHT22;2951;47.712;9.400;2024-02-04T06:38:13;4.70;99.90
5850;DHT22;2951;47.712;9.400;2024-02-04T06:40:40;4.70;99.90
5850;DHT22;2951;47.712;9.400;2024-02-04T06:43:07;4.70;99.90
5850;DHT22;2951;47.712;9.400;2024-02-04T06:45:33;4.70;99.90
5850;DHT22;2951;47.712;9.400;2024-02-04T06:48:00;4.70;99.90
5850;DHT22;2951;47.712;9.400;2024-02-04T06:50:27;4.70;99.90
5850;DHT22;2951;47.712;9.400;2024-02-04T06:52:54;4.80;99.90
5850;DHT22;2951;47.712;9.400;2024-02-04T06:55:21;4.80;99.90
5850;DHT22;2951;47.712;9.400;2024-02-04T06:57:47;4.80;99.90
5850;DHT22;2951;47.712;9.400;2024-02-04T07:00:14;4.80;99.90
5850;DHT22;2951;47.712;9.400;2024-02-04T07:02:42;4.90;99.90
5850;DHT22;2951;47.712;9.400;2024-02-04T07:05:10;4.90;99.90
5850;DHT22;2951;47.712;9.400;2024-02-04T07:07:37;4.90;99.90
5850;DHT22;2951;47.712;9.400;2024-02-04T07:10:04;4.90;99.90
5850;DHT22;2951;47.712;9.400;2024-02-04T07:12:32;4.90;99.90
5850;DHT22;2951;47.712;9.400;2024-02-04T07:14:58;4.90;99.90
5850;DHT22;2951;47.712;9.400;2024-02-04T07:17:25;5.00;99.90
5850;DHT22;2951;47.712;9.400;2024-02-04T07:19:53;5.00;99.90
5850;DHT22;2951;47.712;9.400;2024-02-04T07:22:20;5.00;99.90
5850;DHT22;2951;47.712;9.400;2024-02-04T07:24:46;5.10;99.90
5850;DHT22;2951;47.712;9.400;2024-02-04T07:27:13;5.10;99.90
5850;DHT22;2951;47.712;9.400;2024-02-04T07:29:45;5.10;99.90
5850;DHT22;2951;47.712;9.400;2024-02-04T07:32:13;5.10;99.90
5850;DHT22;2951;47.712;9.400;2024-02-04T07:34:41;5.20;99.90
5850;DHT22;2951;47.712;9.400;2024-02-04T07:37:08;5.20;99.90
5850;DHT22;2951;47.712;9.400;2024-02-04T07:39:35;5.20;99.90
5850;DHT22;2951;47.712;9.400;2024-02-04T07:42:01;5.20;99.90
5850;DHT22;2951;47.712;9.400;2024-02-04T07:44:29;5.20;99.90
5850;DHT22;2951;47.712;9.400;2024-02-04T07:46:56;5.20;99.90
5850;DHT22;2951;47.712;9.400;2024-02-04T07:49:22;5.20;99.90
5850;DHT22;2951;47.712;9.400;2024-02-04T07:51:49;5.20;99.90
5850;DHT22;2951;47.712;9.400;2024-02-04T07:54:16;5.20;99.90
5850;DHT22;2951;47.712;9.400;2024-02-04T07:56:42;5.30;99.90
5850;DHT22;2951;47.712;9.400;2024-02-04T07:59:09;5.30;99.90
5850;DHT22;2951;47.712;9.400;2024-02-04T08:01:36;5.40;99.90
5850;DHT22;2951;47.712;9.400;2024-02-04T08:04:03;5.40;99.90
5850;DHT22;2951;47.712;9.400;2024-02-04T08:06:32;5.50;99.90
5850;DHT22;2951;47.712;9.400;2024-02-04T08:09:01;5.60;99.90
5850;DHT22;2951;47.712;9.400;2024-02-04T08:11:27;5.60;99.90
5850;DHT22;2951;47.712;9.400;2024-02-04T08:13:54;5.70;99.90
5850;DHT22;2951;47.712;9.400;2024-02-04T08:16:21;5.80;99.90
5850;DHT22;2951;47.712;9.400;2024-02-04T08:18:48;5.90;99.90
5850;DHT22;2951;47.712;9.400;2024-02-04T08:21:14;5.90;99.90
5850;DHT22;2951;47.712;9.400;2024-02-04T08:23:41;6.00;99.90
5850;DHT22;2951;47.712;9.400;2024-02-04T08:26:10;6.00;99.90
5850;DHT22;2951;47.712;9.400;2024-02-04T08:31:33;6.00;99.90
5850;DHT22;2951;47.712;9.400;2024-02-04T08:34:00;6.00;99.90
5850;DHT22;2951;47.712;9.400;2024-02-04T08:36:27;5.90;99.90
5850;DHT22;2951;47.712;9.400;2024-02-04T08:38:54;6.00;99.90
5850;DHT22;2951;47.712;9.400;2024-02-04T08:41:20;6.00;99.90
5850;DHT22;2951;47.712;9.400;2024-02-04T08:43:47;6.00;99.90
5850;DHT22;2951;47.712;9.400;2024-02-04T08:46:14;6.00;99.90
5850;DHT22;2951;47.712;9.400;2024-02-04T08:48:41;6.00;99.90
5850;DHT22;2951;47.712;9.400;2024-02-04T08:51:11;6.00;99.90
5850;DHT22;2951;47.712;9.400;2024-02-04T08:53:42;6.10;99.90
5850;DHT22;2951;47.712;9.400;2024-02-04T08:56:09;6.10;99.90
5850;DHT22;2951;47.712;9.400;2024-02-04T08:58:36;6.20;99.90
5850;DHT22;2951;47.712;9.400;2024-02-04T09:01:06;6.40;99.90
5850;DHT22;2951;47.712;9.400;2024-02-04T09:03:33;6.50;99.90
5850;DHT22;2951;47.712;9.400;2024-02-04T09:06:00;6.50;99.90
5850;DHT22;2951;47.712;9.400;2024-02-04T09:08:27;6.50;99.90
5850;DHT22;2951;47.712;9.400;2024-02-04T09:10:53;6.50;99.90
5850;DHT22;2951;47.712;9.400;2024-02-04T09:13:20;6.70;99.90
5850;DHT22;2951;47.712;9.400;2024-02-04T09:15:49;6.90;99.90
5850;DHT22;2951;47.712;9.400;2024-02-04T09:18:15;7.00;99.90
5850;DHT22;2951;47.712;9.400;2024-02-04T09:20:42;7.00;99.90
5850;DHT22;2951;47.712;9.400;2024-02-04T09:23:09;6.90;99.90
5850;DHT22;2951;47.712;9.400;2024-02-04T09:25:36;6.90;99.90
5850;DHT22;2951;47.712;9.400;2024-02-04T09:28:05;6.80;99.90
5850;DHT22;2951;47.712;9.400;2024-02-04T09:30:32;6.70;99.90
5850;DHT22;2951;47.712;9.400;2024-02-04T09:32:58;6.80;99.90
5850;DHT22;2951;47.712;9.400;2024-02-04T09:35:25;6.80;99.90
5850;DHT22;2951;47.712;9.400;2024-02-04T09:37:56;6.70;99.90
5850;DHT22;2951;47.712;9.400;2024-02-04T09:40:23;6.70;99.90
5850;DHT22;2951;47.712;9.400;2024-02-04T09:42:49;6.70;99.90
5850;DHT22;2951;47.712;9.400;2024-02-04T09:45:18;6.70;99.90
5850;DHT22;2951;47.712;9.400;2024-02-04T09:47:46;6.70;99.90
5850;DHT22;2951;47.712;9.400;2024-02-04T09:50:13;6.80;99.90
5850;DHT22;2951;47.712;9.400;2024-02-04T09:52:47;6.70;99.90
5850;DHT22;2951;47.712;9.400;2024-02-04T09:55:15;6.90;99.90
5850;DHT22;2951;47.712;9.400;2024-02-04T09:57:43;6.80;99.90
5850;DHT22;2951;47.712;9.400;2024-02-04T10:00:10;6.90;99.90
5850;DHT22;2951;47.712;9.400;2024-02-04T10:02:38;6.90;99.90
5850;DHT22;2951;47.712;9.400;2024-02-04T10:05:06;6.90;99.90
5850;DHT22;2951;47.712;9.400;2024-02-04T10:07:33;7.00;99.90
5850;DHT22;2951;47.712;9.400;2024-02-04T10:10:00;7.20;99.90
5850;DHT22;2951;47.712;9.400;2024-02-04T10:12:27;7.20;99.90
5850;DHT22;2951;47.712;9.400;2024-02-04T10:14:54;7.20;99.90
5850;DHT22;2951;47.712;9.400;2024-02-04T10:17:21;7.00;99.90
5850;DHT22;2951;47.712;9.400;2024-02-04T10:19:47;6.90;99.90
5850;DHT22;2951;47.712;9.400;2024-02-04T10:22:15;6.90;99.90
5850;DHT22;2951;47.712;9.400;2024-02-04T10:24:43;7.00;99.90
5850;DHT22;2951;47.712;9.400;2024-02-04T10:27:10;7.10;99.90
5850;DHT22;2951;47.712;9.400;2024-02-04T10:29:43;7.10;99.90
5850;DHT22;2951;47.712;9.400;2024-02-04T10:32:09;7.10;99.90
5850;DHT22;2951;47.712;9.400;2024-02-04T10:34:37;7.10;99.90
5850;DHT22;2951;47.712;9.400;2024-02-04T10:37:04;7.10;99.90
5850;DHT22;2951;47.712;9.400;2024-02-04T10:39:31;7.00;99.90
5850;DHT22;2951;47.712;9.400;2024-02-04T10:42:01;7.00;99.90
5850;DHT22;2951;47.712;9.400;2024-02-04T10:44:28;7.00;99.90
5850;DHT22;2951;47.712;9.400;2024-02-04T10:46:55;7.20;99.90
5850;DHT22;2951;47.712;9.400;2024-02-04T10:49:23;7.40;99.90
5850;DHT22;2951;47.712;9.400;2024-02-04T10:51:52;7.50;99.90
5850;DHT22;2951;47.712;9.400;2024-02-04T10:54:22;7.70;99.90
5850;DHT22;2951;47.712;9.400;2024-02-04T10:56:55;7.60;99.90
5850;DHT22;2951;47.712;9.400;2024-02-04T10:59:23;7.90;99.90
5850;DHT22;2951;47.712;9.400;2024-02-04T11:01:50;7.80;99.90
5850;DHT22;2951;47.712;9.400;2024-02-04T11:04:17;7.70;99.90
5850;DHT22;2951;47.712;9.400;2024-02-04T11:06:44;7.70;99.90
5850;DHT22;2951;47.712;9.400;2024-02-04T11:09:12;7.80;99.90
5850;DHT22;2951;47.712;9.400;2024-02-04T11:11:42;7.70;99.90
5850;DHT22;2951;47.712;9.400;2024-02-04T11:14:10;7.60;99.90
5850;DHT22;2951;47.712;9.400;2024-02-04T11:19:31;7.70;99.90
5850;DHT22;2951;47.712;9.400;2024-02-04T11:27:24;7.80;99.90
5850;DHT22;2951;47.712;9.400;2024-02-04T11:29:59;8.00;99.90
5850;DHT22;2951;47.712;9.400;2024-02-04T11:32:25;8.10;99.90
5850;DHT22;2951;47.712;9.400;2024-02-04T11:34:53;8.00;99.90
5850;DHT22;2951;47.712;9.400;2024-02-04T11:37:24;8.10;99.90
5850;DHT22;2951;47.712;9.400;2024-02-04T11:39:52;8.10;99.90
5850;DHT22;2951;47.712;9.400;2024-02-04T11:42:19;8.20;99.90
5850;DHT22;2951;47.712;9.400;2024-02-04T11:44:47;8.30;99.90
5850;DHT22;2951;47.712;9.400;2024-02-04T11:47:23;8.30;99.90
5850;DHT22;2951;47.712;9.400;2024-02-04T11:49:55;8.50;99.90
5850;DHT22;2951;47.712;9.400;2024-02-04T11:52:22;8.50;99.90
5850;DHT22;2951;47.712;9.400;2024-02-04T11:54:49;8.40;99.90
5850;DHT22;2951;47.712;9.400;2024-02-04T11:57:19;8.50;99.90
5850;DHT22;2951;47.712;9.400;2024-02-04T11:59:46;8.60;99.90
5850;DHT22;2951;47.712;9.400;2024-02-04T12:02:17;8.80;99.90
5850;DHT22;2951;47.712;9.400;2024-02-04T12:04:49;9.00;99.90
5850;DHT22;2951;47.712;9.400;2024-02-04T12:07:17;9.20;99.90
5850;DHT22;2951;47.712;9.400;2024-02-04T12:09:44;9.30;99.90
5850;DHT22;2951;47.712;9.400;2024-02-04T12:12:11;9.60;99.90
5850;DHT22;2951;47.712;9.400;2024-02-04T12:14:38;9.80;99.90
5850;DHT22;2951;47.712;9.400;2024-02-04T12:17:11;9.70;99.90
5850;DHT22;2951;47.712;9.400;2024-02-04T12:19:39;10.00;99.90
5850;DHT22;2951;47.712;9.400;2024-02-04T12:22:10;10.20;99.90
5850;DHT22;2951;47.712;9.400;2024-02-04T12:24:37;10.40;99.90
5850;DHT22;2951;47.712;9.400;2024-02-04T12:27:05;10.40;99.90
5850;DHT22;2951;47.712;9.400;2024-02-04T12:29:36;10.20;99.90
5850;DHT22;2951;47.712;9.400;2024-02-04T12:32:04;10.10;99.90
5850;DHT22;2951;47.712;9.400;2024-02-04T12:34:32;10.00;99.90
5850;DHT22;2951;47.712;9.400;2024-02-04T12:37:01;10.00;99.90
5850;DHT22;2951;47.712;9.400;2024-02-04T12:39:28;10.10;99.90
5850;DHT22;2951;47.712;9.400;2024-02-04T12:41:55;10.00;99.90
5850;DHT22;2951;47.712;9.400;2024-02-04T12:44:22;10.10;99.90
5850;DHT22;2951;47.712;9.400;2024-02-04T12:46:51;10.00;99.90
5850;DHT22;2951;47.712;9.400;2024-02-04T12:49:19;10.10;99.90
5850;DHT22;2951;47.712;9.400;2024-02-04T12:51:50;10.00;99.90
5850;DHT22;2951;47.712;9.400;2024-02-04T12:54:25;10.10;99.90
5850;DHT22;2951;47.712;9.400;2024-02-04T12:56:52;10.30;99.90
5850;DHT22;2951;47.712;9.400;2024-02-04T12:59:32;10.20;99.90
5850;DHT22;2951;47.712;9.400;2024-02-04T13:02:01;10.40;99.90
5850;DHT22;2951;47.712;9.400;2024-02-04T13:04:37;10.40;99.90
5850;DHT22;2951;47.712;9.400;2024-02-04T13:07:11;10.60;99.90
5850;DHT22;2951;47.712;9.400;2024-02-04T13:09:43;10.80;99.90
5850;DHT22;2951;47.712;9.400;2024-02-04T13:12:11;10.60;99.90
5850;DHT22;2951;47.712;9.400;2024-02-04T13:14:41;10.80;99.90
5850;DHT22;2951;47.712;9.400;2024-02-04T13:17:08;10.70;99.90
5850;DHT22;2951;47.712;9.400;2024-02-04T13:19:37;10.90;99.90
5850;DHT22;2951;47.712;9.400;2024-02-04T13:22:07;11.20;99.90
5850;DHT22;2951;47.712;9.400;2024-02-04T13:24:38;11.40;99.90
5850;DHT22;2951;47.712;9.400;2024-02-04T13:27:12;11.20;99.90
5850;DHT22;2951;47.712;9.400;2024-02-04T13:29:39;11.30;99.90
5850;DHT22;2951;47.712;9.400;2024-02-04T13:32:05;11.10;99.90
5850;DHT22;2951;47.712;9.400;2024-02-04T13:34:32;10.90;99.90
5850;DHT22;2951;47.712;9.400;2024-02-04T13:36:59;11.00;99.90
5850;DHT22;2951;47.712;9.400;2024-02-04T13:39:26;11.10;99.90
5850;DHT22;2951;47.712;9.400;2024-02-04T13:41:52;11.10;99.90
5850;DHT22;2951;47.712;9.400;2024-02-04T13:44:19;11.30;99.90
5850;DHT22;2951;47.712;9.400;2024-02-04T13:46:46;11.30;99.90
5850;DHT22;2951;47.712;9.400;2024-02-04T13:49:12;11.40;99.90
5850;DHT22;2951;47.712;9.400;2024-02-04T13:51:40;11.50;99.90
5850;DHT22;2951;47.712;9.400;2024-02-04T13:54:10;11.70;99.90
5850;DHT22;2951;47.712;9.400;2024-02-04T13:56:37;12.00;99.90
5850;DHT22;2951;47.712;9.400;2024-02-04T13:59:04;12.20;99.90
5850;DHT22;2951;47.712;9.400;2024-02-04T14:01:31;12.00;99.90
5850;DHT22;2951;47.712;9.400;2024-02-04T14:03:58;11.90;99.90
5850;DHT22;2951;47.712;9.400;2024-02-04T14:06:25;11.80;99.90
5850;DHT22;2951;47.712;9.400;2024-02-04T14:08:52;11.60;99.90
5850;DHT22;2951;47.712;9.400;2024-02-04T14:11:18;11.40;99.90
5850;DHT22;2951;47.712;9.400;2024-02-04T14:13:46;11.30;99.90
5850;DHT22;2951;47.712;9.400;2024-02-04T14:16:13;11.30;99.90
5850;DHT22;2951;47.712;9.400;2024-02-04T14:18:40;11.40;99.90
5850;DHT22;2951;47.712;9.400;2024-02-04T14:21:07;11.30;99.90
5850;DHT22;2951;47.712;9.400;2024-02-04T14:23:36;11.10;99.90
5850;DHT22;2951;47.712;9.400;2024-02-04T14:26:03;10.90;99.90
5850;DHT22;2951;47.712;9.400;2024-02-04T14:28:34;10.80;99.90
5850;DHT22;2951;47.712;9.400;2024-02-04T14:31:07;10.70;99.90
5850;DHT22;2951;47.712;9.400;2024-02-04T14:33:34;10.60;99.90
5850;DHT22;2951;47.712;9.400;2024-02-04T14:36:01;10.50;99.90
5850;DHT22;2951;47.712;9.400;2024-02-04T14:38:27;10.30;99.90
5850;DHT22;2951;47.712;9.400;2024-02-04T14:40:54;10.10;99.90
5850;DHT22;2951;47.712;9.400;2024-02-04T14:43:21;10.00;99.90
5850;DHT22;2951;47.712;9.400;2024-02-04T14:45:49;9.90;99.90
5850;DHT22;2951;47.712;9.400;2024-02-04T14:48:16;10.00;99.90
5850;DHT22;2951;47.712;9.400;2024-02-04T14:50:43;9.90;99.90
5850;DHT22;2951;47.712;9.400;2024-02-04T14:53:10;9.70;99.90
5850;DHT22;2951;47.712;9.400;2024-02-04T14:55:38;9.70;99.90
5850;DHT22;2951;47.712;9.400;2024-02-04T14:58:05;9.60;99.90
5850;DHT22;2951;47.712;9.400;2024-02-04T15:00:32;9.50;99.90
5850;DHT22;2951;47.712;9.400;2024-02-04T15:03:01;9.30;99.90
5850;DHT22;2951;47.712;9.400;2024-02-04T15:05:28;9.30;99.90
5850;DHT22;2951;47.712;9.400;2024-02-04T15:07:54;9.30;99.90
5850;DHT22;2951;47.712;9.400;2024-02-04T15:10:21;9.40;99.90
5850;DHT22;2951;47.712;9.400;2024-02-04T15:12:49;9.30;99.90
5850;DHT22;2951;47.712;9.400;2024-02-04T15:15:19;9.30;99.90
5850;DHT22;2951;47.712;9.400;2024-02-04T15:17:46;9.30;99.90
5850;DHT22;2951;47.712;9.400;2024-02-04T15:20:12;9.40;99.90
5850;DHT22;2951;47.712;9.400;2024-02-04T15:22:44;9.40;99.90
5850;DHT22;2951;47.712;9.400;2024-02-04T15:25:11;9.40;99.90
5850;DHT22;2951;47.712;9.400;2024-02-04T15:27:42;9.40;99.90
5850;DHT22;2951;47.712;9.400;2024-02-04T15:30:13;9.30;99.90
5850;DHT22;2951;47.712;9.400;2024-02-04T15:32:40;9.40;99.90
5850;DHT22;2951;47.712;9.400;2024-02-04T15:35:07;9.40;99.90
5850;DHT22;2951;47.712;9.400;2024-02-04T15:37:37;9.30;99.90
5850;DHT22;2951;47.712;9.400;2024-02-04T15:40:03;9.20;99.90
5850;DHT22;2951;47.712;9.400;2024-02-04T15:42:30;9.10;99.90
5850;DHT22;2951;47.712;9.400;2024-02-04T15:44:58;9.00;99.90
5850;DHT22;2951;47.712;9.400;2024-02-04T15:47:24;8.80;99.90
5850;DHT22;2951;47.712;9.400;2024-02-04T15:49:53;8.70;99.90
5850;DHT22;2951;47.712;9.400;2024-02-04T15:52:20;8.50;99.90
5850;DHT22;2951;47.712;9.400;2024-02-04T15:54:47;8.30;99.90
5850;DHT22;2951;47.712;9.400;2024-02-04T15:57:14;8.30;99.90
5850;DHT22;2951;47.712;9.400;2024-02-04T16:02:15;8.30;99.90
5850;DHT22;2951;47.712;9.400;2024-02-04T16:04:43;8.30;99.90
5850;DHT22;2951;47.712;9.400;2024-02-04T16:07:12;8.30;99.90
5850;DHT22;2951;47.712;9.400;2024-02-04T16:09:39;8.30;99.90
5850;DHT22;2951;47.712;9.400;2024-02-04T16:14:35;8.30;99.90
5850;DHT22;2951;47.712;9.400;2024-02-04T16:17:03;8.30;99.90
5850;DHT22;2951;47.712;9.400;2024-02-04T16:19:31;8.20;99.90
5850;DHT22;2951;47.712;9.400;2024-02-04T16:21:58;8.20;99.90
5850;DHT22;2951;47.712;9.400;2024-02-04T16:24:24;8.20;99.90
5850;DHT22;2951;47.712;9.400;2024-02-04T16:26:52;8.20;99.90
5850;DHT22;2951;47.712;9.400;2024-02-04T16:29:21;8.20;99.90
5850;DHT22;2951;47.712;9.400;2024-02-04T16:31:54;8.20;99.90
5850;DHT22;2951;47.712;9.400;2024-02-04T16:34:20;8.10;99.90
5850;DHT22;2951;47.712;9.400;2024-02-04T16:36:47;8.00;99.90